sensor_id;sensor_type;location;lat;lon;timestamp;P1;durP1;ratioP1;P2;durP2;ratioP2
36817;SDS011;22761;51.542;16.450;2022-07-22T00:01:50;9.80;;;7.37;;
36817;SDS011;22761;51.542;16.450;2022-07-22T00:04:18;9.68;;;6.85;;
36817;SDS011;22761;51.542;16.450;2022-07-22T00:06:45;8.93;;;7.10;;
36817;SDS011;22761;51.542;16.450;2022-07-22T00:09:12;9.43;;;6.60;;
36817;SDS011;22761;51.542;16.450;2022-07-22T00:11:39;9.55;;;7.10;;
36817;SDS011;22761;51.542;16.450;2022-07-22T00:14:06;8.35;;;6.90;;
36817;SDS011;22761;51.542;16.450;2022-07-22T00:16:33;12.18;;;7.60;;
36817;SDS011;22761;51.542;16.450;2022-07-22T00:19:00;7.35;;;6.65;;
36817;SDS011;22761;51.542;16.450;2022-07-22T00:21:27;9.05;;;7.25;;
36817;SDS011;22761;51.542;16.450;2022-07-22T00:23:54;8.95;;;7.33;;
36817;SDS011;22761;51.542;16.450;2022-07-22T00:26:22;8.88;;;6.75;;
36817;SDS011;22761;51.542;16.450;2022-07-22T00:28:49;12.15;;;7.45;;
36817;SDS011;22761;51.542;16.450;2022-07-22T00:31:16;7.95;;;7.15;;
36817;SDS011;22761;51.542;16.450;2022-07-22T00:33:42;8.68;;;6.87;;
36817;SDS011;22761;51.542;16.450;2022-07-22T00:36:09;7.42;;;6.55;;
36817;SDS011;22761;51.542;16.450;2022-07-22T00:38:37;7.80;;;6.97;;
36817;SDS011;22761;51.542;16.450;2022-07-22T00:41:04;9.93;;;7.72;;
36817;SDS011;22761;51.542;16.450;2022-07-22T00:43:47;8.33;;;7.20;;
36817;SDS011;22761;51.542;16.450;2022-07-22T00:46:24;11.57;;;7.45;;
36817;SDS011;22761;51.542;16.450;2022-07-22T00:48:53;12.13;;;6.67;;
36817;SDS011;22761;51.542;16.450;2022-07-22T00:51:21;8.85;;;7.30;;
36817;SDS011;22761;51.542;16.450;2022-07-22T00:53:50;8.68;;;7.10;;
36817;SDS011;22761;51.542;16.450;2022-07-22T00:56:19;7.83;;;7.08;;
36817;SDS011;22761;51.542;16.450;2022-07-22T00:58:47;8.53;;;7.22;;
36817;SDS011;22761;51.542;16.450;2022-07-22T01:03:44;7.65;;;6.95;;
36817;SDS011;22761;51.542;16.450;2022-07-22T01:06:11;9.18;;;7.10;;
36817;SDS011;22761;51.542;16.450;2022-07-22T01:08:39;8.45;;;7.55;;
36817;SDS011;22761;51.542;16.450;2022-07-22T01:11:12;7.70;;;7.00;;
36817;SDS011;22761;51.542;16.450;2022-07-22T01:13:42;8.05;;;7.03;;
36817;SDS011;22761;51.542;16.450;2022-07-22T01:16:11;8.60;;;7.67;;
36817;SDS011;22761;51.542;16.450;2022-07-22T01:18:39;8.75;;;7.60;;
36817;SDS011;22761;51.542;16.450;2022-07-22T01:21:08;7.25;;;6.53;;
36817;SDS011;22761;51.542;16.450;2022-07-22T01:23:37;9.48;;;7.47;;
36817;SDS011;22761;51.542;16.450;2022-07-22T01:26:05;13.22;;;8.10;;
36817;SDS011;22761;51.542;16.450;2022-07-22T01:28:33;8.03;;;7.20;;
36817;SDS011;22761;51.542;16.450;2022-07-22T01:31:01;9.25;;;7.90;;
36817;SDS011;22761;51.542;16.450;2022-07-22T01:33:28;11.25;;;7.90;;
36817;SDS011;22761;51.542;16.450;2022-07-22T01:35:55;11.78;;;8.25;;
36817;SDS011;22761;51.542;16.450;2022-07-22T01:38:26;12.90;;;9.15;;
36817;SDS011;22761;51.542;16.450;2022-07-22T01:40:53;10.32;;;8.58;;
36817;SDS011;22761;51.542;16.450;2022-07-22T01:43:20;9.80;;;8.43;;
36817;SDS011;22761;51.542;16.450;2022-07-22T01:45:48;13.22;;;8.88;;
36817;SDS011;22761;51.542;16.450;2022-07-22T01:48:18;10.80;;;8.80;;
36817;SDS011;22761;51.542;16.450;2022-07-22T01:50:47;9.58;;;8.58;;
36817;SDS011;22761;51.542;16.450;2022-07-22T01:53:15;10.68;;;9.58;;
36817;SDS011;22761;51.542;16.450;2022-07-22T01:55:43;13.43;;;9.98;;
36817;SDS011;22761;51.542;16.450;2022-07-22T01:58:10;10.43;;;9.38;;
36817;SDS011;22761;51.542;16.450;2022-07-22T02:00:37;13.68;;;10.18;;
36817;SDS011;22761;51.542;16.450;2022-07-22T02:03:04;11.73;;;9.58;;
36817;SDS011;22761;51.542;16.450;2022-07-22T02:05:32;12.03;;;9.75;;
36817;SDS011;22761;51.542;16.450;2022-07-22T02:08:06;11.65;;;9.75;;
36817;SDS011;22761;51.542;16.450;2022-07-22T02:10:35;13.68;;;9.75;;
36817;SDS011;22761;51.542;16.450;2022-07-22T02:13:04;13.13;;;9.88;;
36817;SDS011;22761;51.542;16.450;2022-07-22T02:15:31;13.98;;;10.13;;
36817;SDS011;22761;51.542;16.450;2022-07-22T02:18:00;11.08;;;9.88;;
36817;SDS011;22761;51.542;16.450;2022-07-22T02:20:37;11.38;;;10.03;;
36817;SDS011;22761;51.542;16.450;2022-07-22T02:23:04;12.13;;;9.80;;
36817;SDS011;22761;51.542;16.450;2022-07-22T02:25:31;12.15;;;9.83;;
36817;SDS011;22761;51.542;16.450;2022-07-22T02:27:59;11.63;;;10.53;;
36817;SDS011;22761;51.542;16.450;2022-07-22T02:30:26;11.38;;;10.08;;
36817;SDS011;22761;51.542;16.450;2022-07-22T02:32:54;12.82;;;10.10;;
36817;SDS011;22761;51.542;16.450;2022-07-22T02:35:21;12.70;;;10.58;;
36817;SDS011;22761;51.542;16.450;2022-07-22T02:37:48;12.23;;;10.93;;
36817;SDS011;22761;51.542;16.450;2022-07-22T02:40:16;14.28;;;11.78;;
36817;SDS011;22761;51.542;16.450;2022-07-22T02:42:43;12.60;;;11.12;;
36817;SDS011;22761;51.542;16.450;2022-07-22T02:45:10;11.97;;;10.60;;
36817;SDS011;22761;51.542;16.450;2022-07-22T02:47:51;12.47;;;11.20;;
36817;SDS011;22761;51.542;16.450;2022-07-22T02:50:18;12.33;;;11.03;;
36817;SDS011;22761;51.542;16.450;2022-07-22T02:52:46;12.58;;;11.38;;
36817;SDS011;22761;51.542;16.450;2022-07-22T02:55:14;12.82;;;11.03;;
36817;SDS011;22761;51.542;16.450;2022-07-22T02:57:41;15.72;;;11.75;;
36817;SDS011;22761;51.542;16.450;2022-07-22T03:00:09;12.05;;;10.80;;
36817;SDS011;22761;51.542;16.450;2022-07-22T03:02:39;11.57;;;10.43;;
36817;SDS011;22761;51.542;16.450;2022-07-22T03:05:07;12.75;;;11.35;;
36817;SDS011;22761;51.542;16.450;2022-07-22T03:07:37;13.28;;;11.97;;
36817;SDS011;22761;51.542;16.450;2022-07-22T03:10:06;15.40;;;11.65;;
36817;SDS011;22761;51.542;16.450;2022-07-22T03:12:34;12.93;;;11.53;;
36817;SDS011;22761;51.542;16.450;2022-07-22T03:15:01;14.43;;;12.33;;
36817;SDS011;22761;51.542;16.450;2022-07-22T03:17:32;14.73;;;11.43;;
36817;SDS011;22761;51.542;16.450;2022-07-22T03:20:02;13.35;;;12.03;;
36817;SDS011;22761;51.542;16.450;2022-07-22T03:22:30;14.38;;;12.98;;
36817;SDS011;22761;51.542;16.450;2022-07-22T03:24:57;12.80;;;11.57;;
36817;SDS011;22761;51.542;16.450;2022-07-22T03:27:25;13.60;;;12.28;;
36817;SDS011;22761;51.542;16.450;2022-07-22T03:29:53;13.48;;;12.23;;
36817;SDS011;22761;51.542;16.450;2022-07-22T03:32:20;13.28;;;11.95;;
36817;SDS011;22761;51.542;16.450;2022-07-22T03:34:47;14.83;;;11.25;;
36817;SDS011;22761;51.542;16.450;2022-07-22T03:37:16;14.63;;;12.10;;
36817;SDS011;22761;51.542;16.450;2022-07-22T03:39:43;14.10;;;12.23;;
36817;SDS011;22761;51.542;16.450;2022-07-22T03:42:10;13.25;;;11.20;;
36817;SDS011;22761;51.542;16.450;2022-07-22T03:44:39;13.25;;;11.95;;
36817;SDS011;22761;51.542;16.450;2022-07-22T03:47:06;13.28;;;11.57;;
36817;SDS011;22761;51.542;16.450;2022-07-22T03:49:33;13.00;;;11.70;;
36817;SDS011;22761;51.542;16.450;2022-07-22T03:52:00;13.43;;;10.75;;
36817;SDS011;22761;51.542;16.450;2022-07-22T03:54:28;12.45;;;11.12;;
36817;SDS011;22761;51.542;16.450;2022-07-22T03:56:55;13.25;;;11.20;;
36817;SDS011;22761;51.542;16.450;2022-07-22T03:59:22;12.78;;;11.57;;
36817;SDS011;22761;51.542;16.450;2022-07-22T04:01:49;12.65;;;11.45;;
36817;SDS011;22761;51.542;16.450;2022-07-22T04:04:16;12.63;;;11.43;;
36817;SDS011;22761;51.542;16.450;2022-07-22T04:06:44;13.32;;;11.90;;
36817;SDS011;22761;51.542;16.450;2022-07-22T04:09:13;12.37;;;11.10;;
36817;SDS011;22761;51.542;16.450;2022-07-22T04:11:40;14.78;;;12.15;;
36817;SDS011;22761;51.542;16.450;2022-07-22T04:14:08;13.32;;;11.83;;
36817;SDS011;22761;51.542;16.450;2022-07-22T04:16:35;12.65;;;11.40;;
36817;SDS011;22761;51.542;16.450;2022-07-22T04:19:04;13.58;;;12.18;;
36817;SDS011;22761;51.542;16.450;2022-07-22T04:21:42;15.90;;;13.05;;
36817;SDS011;22761;51.542;16.450;2022-07-22T04:24:11;14.78;;;12.95;;
36817;SDS011;22761;51.542;16.450;2022-07-22T04:26:38;14.00;;;12.50;;
36817;SDS011;22761;51.542;16.450;2022-07-22T04:29:05;15.50;;;12.43;;
36817;SDS011;22761;51.542;16.450;2022-07-22T04:31:33;14.65;;;12.85;;
36817;SDS011;22761;51.542;16.450;2022-07-22T04:34:02;16.12;;;13.75;;
36817;SDS011;22761;51.542;16.450;2022-07-22T04:36:29;15.08;;;13.58;;
36817;SDS011;22761;51.542;16.450;2022-07-22T04:38:56;17.00;;;13.08;;
36817;SDS011;22761;51.542;16.450;2022-07-22T04:41:23;17.70;;;13.62;;
36817;SDS011;22761;51.542;16.450;2022-07-22T04:43:51;15.90;;;14.30;;
36817;SDS011;22761;51.542;16.450;2022-07-22T04:46:19;15.30;;;13.68;;
36817;SDS011;22761;51.542;16.450;2022-07-22T04:48:46;16.05;;;13.32;;
36817;SDS011;22761;51.542;16.450;2022-07-22T04:51:14;15.70;;;13.95;;
36817;SDS011;22761;51.542;16.450;2022-07-22T04:53:43;17.65;;;14.63;;
36817;SDS011;22761;51.542;16.450;2022-07-22T04:56:11;17.17;;;14.87;;
36817;SDS011;22761;51.542;16.450;2022-07-22T04:58:39;16.37;;;14.68;;
36817;SDS011;22761;51.542;16.450;2022-07-22T05:01:06;16.35;;;14.15;;
36817;SDS011;22761;51.542;16.450;2022-07-22T05:03:33;14.50;;;13.00;;
36817;SDS011;22761;51.542;16.450;2022-07-22T05:06:00;16.35;;;13.95;;
36817;SDS011;22761;51.542;16.450;2022-07-22T05:08:29;15.32;;;13.83;;
36817;SDS011;22761;51.542;16.450;2022-07-22T05:10:56;15.03;;;13.40;;
36817;SDS011;22761;51.542;16.450;2022-07-22T05:13:24;14.93;;;13.53;;
36817;SDS011;22761;51.542;16.450;2022-07-22T05:15:51;14.68;;;13.08;;
36817;SDS011;22761;51.542;16.450;2022-07-22T05:18:18;15.60;;;13.93;;
36817;SDS011;22761;51.542;16.450;2022-07-22T05:20:45;14.45;;;12.98;;
36817;SDS011;22761;51.542;16.450;2022-07-22T05:23:12;18.35;;;14.20;;
36817;SDS011;22761;51.542;16.450;2022-07-22T05:25:39;14.80;;;13.35;;
36817;SDS011;22761;51.542;16.450;2022-07-22T05:28:06;15.65;;;14.20;;
36817;SDS011;22761;51.542;16.450;2022-07-22T05:30:35;16.65;;;15.05;;
36817;SDS011;22761;51.542;16.450;2022-07-22T05:33:03;17.52;;;14.83;;
36817;SDS011;22761;51.542;16.450;2022-07-22T05:35:43;15.68;;;13.68;;
36817;SDS011;22761;51.542;16.450;2022-07-22T05:38:10;14.68;;;13.38;;
36817;SDS011;22761;51.542;16.450;2022-07-22T05:40:37;14.83;;;13.43;;
36817;SDS011;22761;51.542;16.450;2022-07-22T05:43:04;15.35;;;13.83;;
36817;SDS011;22761;51.542;16.450;2022-07-22T05:45:31;15.30;;;13.68;;
36817;SDS011;22761;51.542;16.450;2022-07-22T05:47:58;15.88;;;14.38;;
36817;SDS011;22761;51.542;16.450;2022-07-22T05:50:27;16.40;;;13.78;;
36817;SDS011;22761;51.542;16.450;2022-07-22T05:52:55;15.18;;;13.68;;
36817;SDS011;22761;51.542;16.450;2022-07-22T05:55:22;17.55;;;14.38;;
36817;SDS011;22761;51.542;16.450;2022-07-22T05:57:50;15.10;;;13.53;;
36817;SDS011;22761;51.542;16.450;2022-07-22T06:00:17;16.40;;;13.60;;
36817;SDS011;22761;51.542;16.450;2022-07-22T06:02:44;15.50;;;14.07;;
36817;SDS011;22761;51.542;16.450;2022-07-22T06:05:13;16.90;;;15.18;;
36817;SDS011;22761;51.542;16.450;2022-07-22T06:07:41;15.63;;;14.03;;
36817;SDS011;22761;51.542;16.450;2022-07-22T06:10:09;16.37;;;14.73;;
36817;SDS011;22761;51.542;16.450;2022-07-22T06:12:37;15.98;;;14.30;;
36817;SDS011;22761;51.542;16.450;2022-07-22T06:15:05;16.52;;;14.83;;
36817;SDS011;22761;51.542;16.450;2022-07-22T06:17:32;15.88;;;14.23;;
36817;SDS011;22761;51.542;16.450;2022-07-22T06:20:00;16.37;;;14.68;;
36817;SDS011;22761;51.542;16.450;2022-07-22T06:22:27;15.90;;;14.43;;
36817;SDS011;22761;51.542;16.450;2022-07-22T06:24:54;15.30;;;13.80;;
36817;SDS011;22761;51.542;16.450;2022-07-22T06:27:21;20.00;;;15.03;;
36817;SDS011;22761;51.542;16.450;2022-07-22T06:29:48;15.95;;;14.47;;
36817;SDS011;22761;51.542;16.450;2022-07-22T06:32:15;16.02;;;14.53;;
36817;SDS011;22761;51.542;16.450;2022-07-22T06:34:42;16.80;;;15.10;;
36817;SDS011;22761;51.542;16.450;2022-07-22T06:37:09;17.10;;;15.30;;
36817;SDS011;22761;51.542;16.450;2022-07-22T06:39:36;17.87;;;15.93;;
36817;SDS011;22761;51.542;16.450;2022-07-22T06:42:08;17.27;;;15.58;;
36817;SDS011;22761;51.542;16.450;2022-07-22T06:44:53;16.48;;;14.80;;
36817;SDS011;22761;51.542;16.450;2022-07-22T06:47:39;16.65;;;14.83;;
36817;SDS011;22761;51.542;16.450;2022-07-22T06:50:09;19.23;;;15.40;;
36817;SDS011;22761;51.542;16.450;2022-07-22T06:52:39;16.30;;;14.73;;
36817;SDS011;22761;51.542;16.450;2022-07-22T06:55:08;16.50;;;14.80;;
36817;SDS011;22761;51.542;16.450;2022-07-22T06:57:39;16.25;;;14.73;;
36817;SDS011;22761;51.542;16.450;2022-07-22T07:00:06;16.62;;;14.93;;
36817;SDS011;22761;51.542;16.450;2022-07-22T07:02:37;16.30;;;14.68;;
36817;SDS011;22761;51.542;16.450;2022-07-22T07:05:04;15.60;;;14.20;;
36817;SDS011;22761;51.542;16.450;2022-07-22T07:07:32;18.87;;;14.50;;
36817;SDS011;22761;51.542;16.450;2022-07-22T07:10:00;16.00;;;14.50;;
36817;SDS011;22761;51.542;16.450;2022-07-22T07:12:32;15.88;;;14.30;;
36817;SDS011;22761;51.542;16.450;2022-07-22T07:15:10;16.10;;;14.58;;
36817;SDS011;22761;51.542;16.450;2022-07-22T07:17:37;17.92;;;16.02;;
36817;SDS011;22761;51.542;16.450;2022-07-22T07:20:06;17.00;;;14.78;;
36817;SDS011;22761;51.542;16.450;2022-07-22T07:22:35;16.40;;;14.85;;
36817;SDS011;22761;51.542;16.450;2022-07-22T07:25:08;15.80;;;14.30;;
36817;SDS011;22761;51.542;16.450;2022-07-22T07:27:34;16.32;;;14.15;;
36817;SDS011;22761;51.542;16.450;2022-07-22T07:30:04;16.37;;;14.73;;
36817;SDS011;22761;51.542;16.450;2022-07-22T07:32:32;14.50;;;13.00;;
36817;SDS011;22761;51.542;16.450;2022-07-22T07:35:00;15.00;;;13.50;;
36817;SDS011;22761;51.542;16.450;2022-07-22T07:37:28;14.83;;;13.32;;
36817;SDS011;22761;51.542;16.450;2022-07-22T07:39:56;15.83;;;14.33;;
36817;SDS011;22761;51.542;16.450;2022-07-22T07:42:24;16.10;;;14.47;;
36817;SDS011;22761;51.542;16.450;2022-07-22T07:44:52;16.93;;;14.45;;
36817;SDS011;22761;51.542;16.450;2022-07-22T07:47:19;16.52;;;14.93;;
36817;SDS011;22761;51.542;16.450;2022-07-22T07:49:47;16.48;;;14.78;;
36817;SDS011;22761;51.542;16.450;2022-07-22T07:52:16;17.55;;;15.85;;
36817;SDS011;22761;51.542;16.450;2022-07-22T07:54:44;16.65;;;15.05;;
36817;SDS011;22761;51.542;16.450;2022-07-22T07:57:12;16.05;;;14.50;;
36817;SDS011;22761;51.542;16.450;2022-07-22T07:59:39;16.85;;;14.95;;
36817;SDS011;22761;51.542;16.450;2022-07-22T08:02:07;17.90;;;16.20;;
36817;SDS011;22761;51.542;16.450;2022-07-22T08:04:35;16.75;;;15.00;;
36817;SDS011;22761;51.542;16.450;2022-07-22T08:07:05;16.40;;;14.85;;
36817;SDS011;22761;51.542;16.450;2022-07-22T08:09:33;17.23;;;15.27;;
36817;SDS011;22761;51.542;16.450;2022-07-22T08:12:03;17.62;;;15.18;;
36817;SDS011;22761;51.542;16.450;2022-07-22T08:14:45;16.90;;;14.93;;
36817;SDS011;22761;51.542;16.450;2022-07-22T08:17:23;16.52;;;14.30;;
36817;SDS011;22761;51.542;16.450;2022-07-22T08:19:51;17.52;;;15.03;;
36817;SDS011;22761;51.542;16.450;2022-07-22T08:22:18;17.20;;;15.53;;
36817;SDS011;22761;51.542;16.450;2022-07-22T08:24:47;17.67;;;15.13;;
36817;SDS011;22761;51.542;16.450;2022-07-22T08:27:15;15.38;;;13.88;;
36817;SDS011;22761;51.542;16.450;2022-07-22T08:29:43;15.60;;;14.03;;
36817;SDS011;22761;51.542;16.450;2022-07-22T08:32:10;16.02;;;14.43;;
36817;SDS011;22761;51.542;16.450;2022-07-22T08:34:38;15.53;;;13.93;;
36817;SDS011;22761;51.542;16.450;2022-07-22T08:37:06;16.45;;;14.30;;
36817;SDS011;22761;51.542;16.450;2022-07-22T08:39:33;15.20;;;13.75;;
36817;SDS011;22761;51.542;16.450;2022-07-22T08:42:00;15.00;;;13.48;;
36817;SDS011;22761;51.542;16.450;2022-07-22T08:44:31;14.33;;;13.03;;
36817;SDS011;22761;51.542;16.450;2022-07-22T08:47:00;12.75;;;11.63;;
36817;SDS011;22761;51.542;16.450;2022-07-22T08:49:32;10.80;;;9.80;;
36817;SDS011;22761;51.542;16.450;2022-07-22T08:52:04;14.13;;;12.73;;
36817;SDS011;22761;51.542;16.450;2022-07-22T08:54:42;14.18;;;12.68;;
36817;SDS011;22761;51.542;16.450;2022-07-22T08:57:11;12.88;;;11.68;;
36817;SDS011;22761;51.542;16.450;2022-07-22T08:59:58;9.35;;;8.35;;
36817;SDS011;22761;51.542;16.450;2022-07-22T09:02:21;8.28;;;7.42;;
36817;SDS011;22761;51.542;16.450;2022-07-22T09:04:56;10.58;;;9.58;;
36817;SDS011;22761;51.542;16.450;2022-07-22T09:07:34;11.18;;;8.18;;
36817;SDS011;22761;51.542;16.450;2022-07-22T09:10:16;9.05;;;7.62;;
36817;SDS011;22761;51.542;16.450;2022-07-22T09:13:05;8.00;;;7.28;;
36817;SDS011;22761;51.542;16.450;2022-07-22T09:15:50;9.45;;;7.87;;
36817;SDS011;22761;51.542;16.450;2022-07-22T09:18:43;8.55;;;7.50;;
36817;SDS011;22761;51.542;16.450;2022-07-22T09:21:32;7.12;;;6.53;;
36817;SDS011;22761;51.542;16.450;2022-07-22T09:24:09;8.10;;;7.33;;
36817;SDS011;22761;51.542;16.450;2022-07-22T09:27:07;8.98;;;7.17;;
36817;SDS011;22761;51.542;16.450;2022-07-22T09:29:35;8.00;;;7.20;;
36817;SDS011;22761;51.542;16.450;2022-07-22T09:32:07;9.28;;;7.80;;
36817;SDS011;22761;51.542;16.450;2022-07-22T09:34:39;7.90;;;7.20;;
36817;SDS011;22761;51.542;16.450;2022-07-22T09:37:08;7.78;;;6.97;;
36817;SDS011;22761;51.542;16.450;2022-07-22T09:39:35;7.60;;;6.90;;
36817;SDS011;22761;51.542;16.450;2022-07-22T09:42:03;7.87;;;7.08;;
36817;SDS011;22761;51.542;16.450;2022-07-22T09:44:33;9.35;;;6.12;;
36817;SDS011;22761;51.542;16.450;2022-07-22T09:47:02;7.87;;;7.15;;
36817;SDS011;22761;51.542;16.450;2022-07-22T09:49:40;7.03;;;6.42;;
36817;SDS011;22761;51.542;16.450;2022-07-22T09:52:27;7.35;;;6.65;;
36817;SDS011;22761;51.542;16.450;2022-07-22T09:55:02;7.45;;;6.85;;
36817;SDS011;22761;51.542;16.450;2022-07-22T09:57:30;8.23;;;6.72;;
36817;SDS011;22761;51.542;16.450;2022-07-22T09:59:57;9.28;;;6.62;;
36817;SDS011;22761;51.542;16.450;2022-07-22T10:02:26;7.22;;;6.53;;
36817;SDS011;22761;51.542;16.450;2022-07-22T10:04:55;8.30;;;7.10;;
36817;SDS011;22761;51.542;16.450;2022-07-22T10:07:23;8.53;;;7.42;;
36817;SDS011;22761;51.542;16.450;2022-07-22T10:09:52;8.00;;;7.30;;
36817;SDS011;22761;51.542;16.450;2022-07-22T10:12:20;9.10;;;7.62;;
36817;SDS011;22761;51.542;16.450;2022-07-22T10:14:48;7.65;;;6.95;;
36817;SDS011;22761;51.542;16.450;2022-07-22T10:17:15;11.03;;;7.10;;
36817;SDS011;22761;51.542;16.450;2022-07-22T10:19:44;8.00;;;7.30;;
36817;SDS011;22761;51.542;16.450;2022-07-22T10:25:13;6.60;;;6.00;;
36817;SDS011;22761;51.542;16.450;2022-07-22T10:30:23;6.97;;;6.25;;
36817;SDS011;22761;51.542;16.450;2022-07-22T10:33:07;7.80;;;6.03;;
36817;SDS011;22761;51.542;16.450;2022-07-22T10:38:23;8.08;;;7.10;;
36817;SDS011;22761;51.542;16.450;2022-07-22T10:46:03;6.95;;;6.12;;
36817;SDS011;22761;51.542;16.450;2022-07-22T10:53:54;5.95;;;5.42;;
36817;SDS011;22761;51.542;16.450;2022-07-22T10:56:26;6.37;;;5.20;;
36817;SDS011;22761;51.542;16.450;2022-07-22T11:01:43;6.08;;;5.47;;
36817;SDS011;22761;51.542;16.450;2022-07-22T11:06:48;8.15;;;5.45;;
36817;SDS011;22761;51.542;16.450;2022-07-22T11:09:22;6.67;;;5.97;;
36817;SDS011;22761;51.542;16.450;2022-07-22T11:11:52;6.95;;;6.25;;
36817;SDS011;22761;51.542;16.450;2022-07-22T11:17:11;6.47;;;5.87;;
36817;SDS011;22761;51.542;16.450;2022-07-22T11:19:42;6.47;;;5.65;;
36817;SDS011;22761;51.542;16.450;2022-07-22T11:22:10;7.47;;;5.80;;
36817;SDS011;22761;51.542;16.450;2022-07-22T11:24:41;5.83;;;5.22;;
36817;SDS011;22761;51.542;16.450;2022-07-22T11:27:17;5.12;;;4.62;;
36817;SDS011;22761;51.542;16.450;2022-07-22T11:29:42;5.25;;;4.75;;
36817;SDS011;22761;51.542;16.450;2022-07-22T11:32:13;5.70;;;4.85;;
36817;SDS011;22761;51.542;16.450;2022-07-22T11:34:42;6.40;;;5.10;;
36817;SDS011;22761;51.542;16.450;2022-07-22T11:37:17;6.10;;;5.55;;
36817;SDS011;22761;51.542;16.450;2022-07-22T11:39:49;6.15;;;5.55;;
36817;SDS011;22761;51.542;16.450;2022-07-22T11:42:19;6.67;;;6.08;;
36817;SDS011;22761;51.542;16.450;2022-07-22T11:47:15;6.10;;;5.45;;
36817;SDS011;22761;51.542;16.450;2022-07-22T11:49:44;8.75;;;6.17;;
36817;SDS011;22761;51.542;16.450;2022-07-22T11:52:14;7.03;;;5.35;;
36817;SDS011;22761;51.542;16.450;2022-07-22T11:54:41;5.83;;;5.33;;
36817;SDS011;22761;51.542;16.450;2022-07-22T11:57:11;5.65;;;5.00;;
36817;SDS011;22761;51.542;16.450;2022-07-22T11:59:40;5.25;;;4.75;;
36817;SDS011;22761;51.542;16.450;2022-07-22T12:02:09;5.55;;;5.05;;
36817;SDS011;22761;51.542;16.450;2022-07-22T12:04:39;5.25;;;4.85;;
36817;SDS011;22761;51.542;16.450;2022-07-22T12:07:06;5.33;;;4.87;;
36817;SDS011;22761;51.542;16.450;2022-07-22T12:12:04;6.50;;;5.25;;
36817;SDS011;22761;51.542;16.450;2022-07-22T12:14:32;5.70;;;4.60;;
36817;SDS011;22761;51.542;16.450;2022-07-22T12:17:07;5.97;;;4.75;;
36817;SDS011;22761;51.542;16.450;2022-07-22T12:19:36;5.67;;;4.72;;
36817;SDS011;22761;51.542;16.450;2022-07-22T12:27:13;5.92;;;4.40;;
36817;SDS011;22761;51.542;16.450;2022-07-22T12:29:44;4.80;;;4.30;;
36817;SDS011;22761;51.542;16.450;2022-07-22T12:32:17;4.87;;;4.30;;
36817;SDS011;22761;51.542;16.450;2022-07-22T12:34:55;4.97;;;4.47;;
36817;SDS011;22761;51.542;16.450;2022-07-22T12:37:26;5.40;;;4.47;;
36817;SDS011;22761;51.542;16.450;2022-07-22T12:40:17;5.20;;;4.70;;
36817;SDS011;22761;51.542;16.450;2022-07-22T12:42:47;4.30;;;3.90;;
36817;SDS011;22761;51.542;16.450;2022-07-22T12:45:35;5.03;;;4.33;;
36817;SDS011;22761;51.542;16.450;2022-07-22T12:48:05;6.20;;;4.40;;
36817;SDS011;22761;51.542;16.450;2022-07-22T12:50:39;5.65;;;4.22;;
36817;SDS011;22761;51.542;16.450;2022-07-22T12:53:10;4.87;;;4.28;;
36817;SDS011;22761;51.542;16.450;2022-07-22T12:55:45;5.75;;;4.33;;
36817;SDS011;22761;51.542;16.450;2022-07-22T12:58:30;6.40;;;4.28;;
36817;SDS011;22761;51.542;16.450;2022-07-22T13:00:59;5.28;;;4.03;;
36817;SDS011;22761;51.542;16.450;2022-07-22T13:03:28;6.65;;;4.00;;
36817;SDS011;22761;51.542;16.450;2022-07-22T13:05:57;4.40;;;3.87;;
36817;SDS011;22761;51.542;16.450;2022-07-22T13:08:27;6.10;;;4.05;;
36817;SDS011;22761;51.542;16.450;2022-07-22T13:10:55;7.10;;;4.20;;
36817;SDS011;22761;51.542;16.450;2022-07-22T13:13:22;4.40;;;3.98;;
36817;SDS011;22761;51.542;16.450;2022-07-22T13:15:50;6.08;;;4.15;;
36817;SDS011;22761;51.542;16.450;2022-07-22T13:18:17;4.70;;;4.17;;
36817;SDS011;22761;51.542;16.450;2022-07-22T13:20:44;4.03;;;3.70;;
36817;SDS011;22761;51.542;16.450;2022-07-22T13:23:12;5.23;;;3.50;;
36817;SDS011;22761;51.542;16.450;2022-07-22T13:25:39;4.87;;;4.37;;
36817;SDS011;22761;51.542;16.450;2022-07-22T13:28:06;5.28;;;3.92;;
36817;SDS011;22761;51.542;16.450;2022-07-22T13:30:33;4.12;;;3.75;;
36817;SDS011;22761;51.542;16.450;2022-07-22T13:33:00;6.37;;;4.10;;
36817;SDS011;22761;51.542;16.450;2022-07-22T13:35:28;5.03;;;4.47;;
36817;SDS011;22761;51.542;16.450;2022-07-22T13:37:56;5.33;;;4.35;;
36817;SDS011;22761;51.542;16.450;2022-07-22T13:40:23;4.67;;;3.90;;
36817;SDS011;22761;51.542;16.450;2022-07-22T13:42:51;4.28;;;3.87;;
36817;SDS011;22761;51.542;16.450;2022-07-22T13:45:18;4.33;;;3.90;;
36817;SDS011;22761;51.542;16.450;2022-07-22T13:47:46;6.78;;;4.60;;
36817;SDS011;22761;51.542;16.450;2022-07-22T13:50:13;4.60;;;4.10;;
36817;SDS011;22761;51.542;16.450;2022-07-22T13:52:40;4.80;;;4.25;;
36817;SDS011;22761;51.542;16.450;2022-07-22T13:55:09;5.70;;;4.22;;
36817;SDS011;22761;51.542;16.450;2022-07-22T13:57:37;5.15;;;4.17;;
36817;SDS011;22761;51.542;16.450;2022-07-22T14:00:06;8.13;;;4.00;;
36817;SDS011;22761;51.542;16.450;2022-07-22T14:02:35;4.97;;;4.33;;
36817;SDS011;22761;51.542;16.450;2022-07-22T14:05:03;7.92;;;4.30;;
36817;SDS011;22761;51.542;16.450;2022-07-22T14:07:31;6.80;;;4.47;;
36817;SDS011;22761;51.542;16.450;2022-07-22T14:09:58;5.25;;;3.95;;
36817;SDS011;22761;51.542;16.450;2022-07-22T14:12:25;5.08;;;4.50;;
36817;SDS011;22761;51.542;16.450;2022-07-22T14:14:52;4.33;;;3.92;;
36817;SDS011;22761;51.542;16.450;2022-07-22T14:17:19;4.87;;;4.40;;
36817;SDS011;22761;51.542;16.450;2022-07-22T14:19:46;5.25;;;4.60;;
36817;SDS011;22761;51.542;16.450;2022-07-22T14:22:13;7.78;;;4.92;;
36817;SDS011;22761;51.542;16.450;2022-07-22T14:24:40;6.00;;;5.12;;
36817;SDS011;22761;51.542;16.450;2022-07-22T14:27:07;9.23;;;5.22;;
36817;SDS011;22761;51.542;16.450;2022-07-22T14:29:34;6.97;;;5.28;;
36817;SDS011;22761;51.542;16.450;2022-07-22T14:32:01;9.40;;;5.17;;
36817;SDS011;22761;51.542;16.450;2022-07-22T14:34:38;7.60;;;4.80;;
36817;SDS011;22761;51.542;16.450;2022-07-22T14:37:02;6.42;;;4.45;;
36817;SDS011;22761;51.542;16.450;2022-07-22T14:39:31;5.53;;;4.20;;
36817;SDS011;22761;51.542;16.450;2022-07-22T14:42:02;5.45;;;4.60;;
36817;SDS011;22761;51.542;16.450;2022-07-22T14:44:30;6.08;;;4.47;;
36817;SDS011;22761;51.542;16.450;2022-07-22T14:46:57;5.45;;;4.40;;
36817;SDS011;22761;51.542;16.450;2022-07-22T14:49:24;6.90;;;4.47;;
36817;SDS011;22761;51.542;16.450;2022-07-22T14:51:51;7.10;;;4.62;;
36817;SDS011;22761;51.542;16.450;2022-07-22T14:54:18;5.62;;;4.65;;
36817;SDS011;22761;51.542;16.450;2022-07-22T14:56:47;5.28;;;4.78;;
36817;SDS011;22761;51.542;16.450;2022-07-22T14:59:25;6.00;;;4.90;;
36817;SDS011;22761;51.542;16.450;2022-07-22T15:01:52;6.30;;;4.55;;
36817;SDS011;22761;51.542;16.450;2022-07-22T15:04:19;6.00;;;4.75;;
36817;SDS011;22761;51.542;16.450;2022-07-22T15:06:47;9.58;;;4.65;;
36817;SDS011;22761;51.542;16.450;2022-07-22T15:09:14;5.08;;;4.58;;
36817;SDS011;22761;51.542;16.450;2022-07-22T15:11:41;5.30;;;4.80;;
36817;SDS011;22761;51.542;16.450;2022-07-22T15:14:08;5.70;;;4.80;;